sensor_id;sensor_type;location;lat;lon;timestamp;pressure;altitude;pressure_sealevel;temperature;humidity
70127;BME280;57491;42.694;23.314;2023-03-15T00:00:32;94135.69;;;8.73;35.19
70127;BME280;57491;42.694;23.314;2023-03-15T00:02:59;94136.13;;;8.77;34.88
70127;BME280;57491;42.694;23.314;2023-03-15T00:05:28;94129.41;;;8.89;35.24
70127;BME280;57491;42.694;23.314;2023-03-15T00:07:56;94129.47;;;9.02;34.73
70127;BME280;57491;42.694;23.314;2023-03-15T00:10:23;94122.66;;;9.01;34.60
70127;BME280;57491;42.694;23.314;2023-03-15T00:12:50;94116.09;;;9.05;36.45
70127;BME280;57491;42.694;23.314;2023-03-15T00:15:18;94126.69;;;9.10;37.33
70127;BME280;57491;42.694;23.314;2023-03-15T00:17:46;94138.09;;;9.16;38.71
70127;BME280;57491;42.694;23.314;2023-03-15T00:20:13;94142.66;;;9.07;40.60
70127;BME280;57491;42.694;23.314;2023-03-15T00:22:40;94138.78;;;8.90;41.78
70127;BME280;57491;42.694;23.314;2023-03-15T00:25:08;94131.16;;;8.82;41.35
70127;BME280;57491;42.694;23.314;2023-03-15T00:27:35;94128.34;;;8.83;42.35
70127;BME280;57491;42.694;23.314;2023-03-15T00:30:03;94130.94;;;8.83;41.64
70127;BME280;57491;42.694;23.314;2023-03-15T00:32:31;94129.38;;;8.82;42.63
70127;BME280;57491;42.694;23.314;2023-03-15T00:34:59;94122.38;;;8.83;42.49
70127;BME280;57491;42.694;23.314;2023-03-15T00:37:26;94113.38;;;8.79;43.55
70127;BME280;57491;42.694;23.314;2023-03-15T00:39:53;94113.03;;;8.82;44.18
70127;BME280;57491;42.694;23.314;2023-03-15T00:42:21;94108.47;;;8.90;42.96
70127;BME280;57491;42.694;23.314;2023-03-15T00:44:52;94115.00;;;8.80;42.07
70127;BME280;57491;42.694;23.314;2023-03-15T00:47:20;94117.31;;;8.68;42.31
70127;BME280;57491;42.694;23.314;2023-03-15T00:49:47;94117.66;;;8.59;42.71
70127;BME280;57491;42.694;23.314;2023-03-15T00:52:17;94110.78;;;8.44;42.98
70127;BME280;57491;42.694;23.314;2023-03-15T00:54:50;94099.63;;;8.44;44.00
70127;BME280;57491;42.694;23.314;2023-03-15T00:57:17;94102.13;;;8.59;43.27
70127;BME280;57491;42.694;23.314;2023-03-15T00:59:44;94101.91;;;8.60;42.02
70127;BME280;57491;42.694;23.314;2023-03-15T01:02:12;94095.31;;;8.58;42.51
70127;BME280;57491;42.694;23.314;2023-03-15T01:04:39;94093.72;;;8.57;43.97
70127;BME280;57491;42.694;23.314;2023-03-15T01:07:06;94091.38;;;8.62;42.97
70127;BME280;57491;42.694;23.314;2023-03-15T01:09:35;94087.44;;;8.72;44.44
70127;BME280;57491;42.694;23.314;2023-03-15T01:12:02;94084.69;;;8.80;43.35
70127;BME280;57491;42.694;23.314;2023-03-15T01:14:29;94084.28;;;8.77;43.02
70127;BME280;57491;42.694;23.314;2023-03-15T01:16:56;94082.66;;;8.76;42.79
70127;BME280;57491;42.694;23.314;2023-03-15T01:19:23;94084.47;;;8.75;42.78
70127;BME280;57491;42.694;23.314;2023-03-15T01:21:50;94074.06;;;8.69;42.18
70127;BME280;57491;42.694;23.314;2023-03-15T01:24:17;94072.66;;;8.66;42.16
70127;BME280;57491;42.694;23.314;2023-03-15T01:26:46;94072.47;;;8.68;42.20
70127;BME280;57491;42.694;23.314;2023-03-15T01:29:13;94053.31;;;8.62;42.62
70127;BME280;57491;42.694;23.314;2023-03-15T01:31:42;94063.31;;;8.72;43.32
70127;BME280;57491;42.694;23.314;2023-03-15T01:34:09;94066.16;;;8.83;43.43
70127;BME280;57491;42.694;23.314;2023-03-15T01:36:36;94073.34;;;8.88;44.50
70127;BME280;57491;42.694;23.314;2023-03-15T01:39:03;94064.81;;;8.94;44.04
70127;BME280;57491;42.694;23.314;2023-03-15T01:41:31;94061.81;;;8.97;42.34
70127;BME280;57491;42.694;23.314;2023-03-15T01:43:59;94055.66;;;8.98;42.77
70127;BME280;57491;42.694;23.314;2023-03-15T01:46:27;94054.84;;;8.98;42.66
70127;BME280;57491;42.694;23.314;2023-03-15T01:49:02;94043.09;;;8.95;42.55
70127;BME280;57491;42.694;23.314;2023-03-15T01:51:34;94046.91;;;8.99;41.80
70127;BME280;57491;42.694;23.314;2023-03-15T01:54:06;94046.09;;;9.05;42.49
70127;BME280;57491;42.694;23.314;2023-03-15T01:56:37;94040.13;;;9.05;42.92
70127;BME280;57491;42.694;23.314;2023-03-15T01:59:10;94036.31;;;9.01;42.70
70127;BME280;57491;42.694;23.314;2023-03-15T02:01:41;94036.69;;;8.91;42.23
70127;BME280;57491;42.694;23.314;2023-03-15T02:04:14;94028.50;;;8.87;43.16
70127;BME280;57491;42.694;23.314;2023-03-15T02:06:43;94023.69;;;8.78;42.77
70127;BME280;57491;42.694;23.314;2023-03-15T02:09:14;94023.88;;;8.83;43.16
70127;BME280;57491;42.694;23.314;2023-03-15T02:11:44;94015.13;;;8.84;43.39
70127;BME280;57491;42.694;23.314;2023-03-15T02:14:12;94018.34;;;8.86;42.46
70127;BME280;57491;42.694;23.314;2023-03-15T02:16:40;94011.16;;;8.88;41.42
70127;BME280;57491;42.694;23.314;2023-03-15T02:19:15;94006.19;;;8.86;43.01
70127;BME280;57491;42.694;23.314;2023-03-15T02:21:49;93997.00;;;8.90;44.59
70127;BME280;57491;42.694;23.314;2023-03-15T02:24:28;94007.78;;;8.94;43.53
70127;BME280;57491;42.694;23.314;2023-03-15T02:26:59;94003.19;;;8.89;41.82
70127;BME280;57491;42.694;23.314;2023-03-15T02:29:29;94000.19;;;8.92;41.48
70127;BME280;57491;42.694;23.314;2023-03-15T02:31:56;93999.59;;;8.90;41.42
70127;BME280;57491;42.694;23.314;2023-03-15T02:34:24;93996.63;;;8.87;41.81
70127;BME280;57491;42.694;23.314;2023-03-15T02:36:51;94008.94;;;8.85;40.98
70127;BME280;57491;42.694;23.314;2023-03-15T02:39:21;93997.78;;;8.78;40.57
70127;BME280;57491;42.694;23.314;2023-03-15T02:41:51;94000.19;;;8.86;40.67
70127;BME280;57491;42.694;23.314;2023-03-15T02:44:22;93998.78;;;8.83;41.01
70127;BME280;57491;42.694;23.314;2023-03-15T02:46:56;94002.38;;;8.82;40.28
70127;BME280;57491;42.694;23.314;2023-03-15T02:49:28;93992.19;;;8.81;39.54
70127;BME280;57491;42.694;23.314;2023-03-15T02:51:57;93992.97;;;8.75;39.56
70127;BME280;57491;42.694;23.314;2023-03-15T02:54:24;93987.16;;;8.66;39.97
70127;BME280;57491;42.694;23.314;2023-03-15T02:56:51;93979.38;;;8.66;40.62
70127;BME280;57491;42.694;23.314;2023-03-15T02:59:18;93978.38;;;8.67;38.95
70127;BME280;57491;42.694;23.314;2023-03-15T03:01:46;93976.19;;;8.64;38.41
70127;BME280;57491;42.694;23.314;2023-03-15T03:04:14;93978.97;;;8.69;39.49
70127;BME280;57491;42.694;23.314;2023-03-15T03:06:41;93976.38;;;8.63;40.04
70127;BME280;57491;42.694;23.314;2023-03-15T03:09:09;93974.97;;;8.60;38.63
70127;BME280;57491;42.694;23.314;2023-03-15T03:11:36;93972.94;;;8.56;38.20
70127;BME280;57491;42.694;23.314;2023-03-15T03:14:04;93973.31;;;8.46;37.27
70127;BME280;57491;42.694;23.314;2023-03-15T03:16:31;93964.78;;;8.24;37.51
70127;BME280;57491;42.694;23.314;2023-03-15T03:18:58;93959.56;;;8.11;37.76
70127;BME280;57491;42.694;23.314;2023-03-15T03:21:27;93950.34;;;8.02;37.99
70127;BME280;57491;42.694;23.314;2023-03-15T03:23:54;93948.72;;;7.94;37.78
70127;BME280;57491;42.694;23.314;2023-03-15T03:26:21;93962.91;;;8.05;38.23
70127;BME280;57491;42.694;23.314;2023-03-15T03:28:53;93963.09;;;8.03;37.90
70127;BME280;57491;42.694;23.314;2023-03-15T03:31:22;93950.91;;;7.97;37.51
70127;BME280;57491;42.694;23.314;2023-03-15T03:33:49;93959.41;;;7.85;37.68
70127;BME280;57491;42.694;23.314;2023-03-15T03:36:17;93953.81;;;7.81;38.44
70127;BME280;57491;42.694;23.314;2023-03-15T03:38:46;93949.84;;;7.85;39.00
70127;BME280;57491;42.694;23.314;2023-03-15T03:41:13;93938.53;;;7.93;39.74
70127;BME280;57491;42.694;23.314;2023-03-15T03:43:40;93943.16;;;7.97;38.31
70127;BME280;57491;42.694;23.314;2023-03-15T03:46:07;93942.41;;;8.03;38.68
70127;BME280;57491;42.694;23.314;2023-03-15T03:48:35;93938.44;;;8.07;38.55
70127;BME280;57491;42.694;23.314;2023-03-15T03:51:02;93937.56;;;7.94;39.04
70127;BME280;57491;42.694;23.314;2023-03-15T03:53:29;93944.22;;;8.10;40.21
70127;BME280;57491;42.694;23.314;2023-03-15T03:55:57;93938.09;;;8.17;38.37
70127;BME280;57491;42.694;23.314;2023-03-15T03:58:24;93928.75;;;8.23;39.77
70127;BME280;57491;42.694;23.314;2023-03-15T04:00:51;93927.78;;;8.24;38.83
70127;BME280;57491;42.694;23.314;2023-03-15T04:03:19;93917.81;;;8.27;38.58
70127;BME280;57491;42.694;23.314;2023-03-15T04:05:52;93925.28;;;8.37;38.81
70127;BME280;57491;42.694;23.314;2023-03-15T04:08:19;93920.31;;;8.42;38.75
70127;BME280;57491;42.694;23.314;2023-03-15T04:10:49;93920.91;;;8.37;37.32
70127;BME280;57491;42.694;23.314;2023-03-15T04:13:18;93922.25;;;8.33;38.08
70127;BME280;57491;42.694;23.314;2023-03-15T04:15:45;93921.56;;;8.18;38.08
70127;BME280;57491;42.694;23.314;2023-03-15T04:18:13;93915.59;;;8.18;38.02
70127;BME280;57491;42.694;23.314;2023-03-15T04:20:40;93912.81;;;8.19;39.02
70127;BME280;57491;42.694;23.314;2023-03-15T04:23:12;93921.59;;;8.25;39.42
70127;BME280;57491;42.694;23.314;2023-03-15T04:25:39;93920.41;;;8.27;38.07
70127;BME280;57491;42.694;23.314;2023-03-15T04:28:06;93923.75;;;8.21;37.50
70127;BME280;57491;42.694;23.314;2023-03-15T04:30:36;93909.84;;;8.22;38.02
70127;BME280;57491;42.694;23.314;2023-03-15T04:33:04;93915.25;;;8.27;39.08
70127;BME280;57491;42.694;23.314;2023-03-15T04:35:34;93908.44;;;8.26;39.97
70127;BME280;57491;42.694;23.314;2023-03-15T04:38:01;93908.72;;;8.38;40.15
70127;BME280;57491;42.694;23.314;2023-03-15T04:40:30;93910.72;;;8.42;39.17
70127;BME280;57491;42.694;23.314;2023-03-15T04:43:01;93903.97;;;8.41;38.88
70127;BME280;57491;42.694;23.314;2023-03-15T04:45:30;93919.53;;;8.48;39.03
70127;BME280;57491;42.694;23.314;2023-03-15T04:47:58;93918.53;;;8.49;39.68
70127;BME280;57491;42.694;23.314;2023-03-15T04:50:26;93916.31;;;8.39;38.13
70127;BME280;57491;42.694;23.314;2023-03-15T04:52:54;93914.13;;;8.36;38.84
70127;BME280;57491;42.694;23.314;2023-03-15T04:55:21;93920.69;;;8.39;39.20
70127;BME280;57491;42.694;23.314;2023-03-15T04:57:48;93902.94;;;8.36;40.27
70127;BME280;57491;42.694;23.314;2023-03-15T05:00:16;93910.94;;;8.47;39.44
70127;BME280;57491;42.694;23.314;2023-03-15T05:02:43;93905.00;;;8.54;38.54
70127;BME280;57491;42.694;23.314;2023-03-15T05:05:18;93904.41;;;8.58;38.79
70127;BME280;57491;42.694;23.314;2023-03-15T05:07:45;93904.41;;;8.58;39.17
70127;BME280;57491;42.694;23.314;2023-03-15T05:10:12;93908.22;;;8.62;38.06
70127;BME280;57491;42.694;23.314;2023-03-15T05:12:39;93921.94;;;8.49;38.39
70127;BME280;57491;42.694;23.314;2023-03-15T05:15:07;93918.94;;;8.46;38.06
70127;BME280;57491;42.694;23.314;2023-03-15T05:17:34;93919.66;;;8.33;38.12
70127;BME280;57491;42.694;23.314;2023-03-15T05:20:01;93914.91;;;8.37;39.01
70127;BME280;57491;42.694;23.314;2023-03-15T05:22:37;93912.72;;;8.40;38.69
70127;BME280;57491;42.694;23.314;2023-03-15T05:25:05;93906.13;;;8.31;39.26
70127;BME280;57491;42.694;23.314;2023-03-15T05:27:32;93909.72;;;8.37;39.78
70127;BME280;57491;42.694;23.314;2023-03-15T05:30:00;93919.50;;;8.41;39.04
70127;BME280;57491;42.694;23.314;2023-03-15T05:32:29;93900.25;;;8.16;39.51
70127;BME280;57491;42.694;23.314;2023-03-15T05:34:59;93898.63;;;8.08;40.06
70127;BME280;57491;42.694;23.314;2023-03-15T05:37:26;93906.47;;;7.87;40.81
70127;BME280;57491;42.694;23.314;2023-03-15T05:39:55;93895.63;;;8.05;40.79
70127;BME280;57491;42.694;23.314;2023-03-15T05:42:22;93904.31;;;7.97;40.84
70127;BME280;57491;42.694;23.314;2023-03-15T05:44:51;93903.31;;;7.92;41.31
70127;BME280;57491;42.694;23.314;2023-03-15T05:47:18;93915.19;;;7.80;40.74
70127;BME280;57491;42.694;23.314;2023-03-15T05:49:45;93906.03;;;7.77;41.57
70127;BME280;57491;42.694;23.314;2023-03-15T05:52:13;93867.16;;;7.71;41.41
70127;BME280;57491;42.694;23.314;2023-03-15T05:54:41;93893.63;;;8.07;39.96
70127;BME280;57491;42.694;23.314;2023-03-15T05:57:10;93901.03;;;8.17;38.78
70127;BME280;57491;42.694;23.314;2023-03-15T05:59:37;93897.47;;;8.18;38.14
70127;BME280;57491;42.694;23.314;2023-03-15T06:02:05;93892.50;;;8.23;37.13
70127;BME280;57491;42.694;23.314;2023-03-15T06:04:32;93897.72;;;8.29;38.07
70127;BME280;57491;42.694;23.314;2023-03-15T06:06:59;93896.78;;;8.43;37.80
70127;BME280;57491;42.694;23.314;2023-03-15T06:09:26;93896.47;;;8.66;37.79
70127;BME280;57491;42.694;23.314;2023-03-15T06:11:53;93892.28;;;8.72;37.75
70127;BME280;57491;42.694;23.314;2023-03-15T06:14:22;93895.53;;;8.87;37.88
70127;BME280;57491;42.694;23.314;2023-03-15T06:16:49;93894.38;;;9.22;37.07
70127;BME280;57491;42.694;23.314;2023-03-15T06:19:16;93895.34;;;9.48;35.87
70127;BME280;57491;42.694;23.314;2023-03-15T06:21:43;93896.88;;;9.95;35.17
70127;BME280;57491;42.694;23.314;2023-03-15T06:24:10;93901.06;;;10.02;35.06
70127;BME280;57491;42.694;23.314;2023-03-15T06:26:37;93907.81;;;10.23;34.80
70127;BME280;57491;42.694;23.314;2023-03-15T06:29:04;93915.16;;;10.39;34.18
70127;BME280;57491;42.694;23.314;2023-03-15T06:31:33;93899.41;;;10.34;35.07
70127;BME280;57491;42.694;23.314;2023-03-15T06:34:00;93886.34;;;10.41;34.94
70127;BME280;57491;42.694;23.314;2023-03-15T06:36:27;93887.50;;;10.58;35.17
70127;BME280;57491;42.694;23.314;2023-03-15T06:38:55;93882.63;;;10.68;34.76
70127;BME280;57491;42.694;23.314;2023-03-15T06:41:22;93884.00;;;11.08;34.00
70127;BME280;57491;42.694;23.314;2023-03-15T06:43:49;93891.72;;;11.46;33.15
70127;BME280;57491;42.694;23.314;2023-03-15T06:46:16;93884.88;;;11.52;32.82
70127;BME280;57491;42.694;23.314;2023-03-15T06:48:45;93883.75;;;11.66;33.00
70127;BME280;57491;42.694;23.314;2023-03-15T06:51:12;93877.66;;;11.79;32.83
70127;BME280;57491;42.694;23.314;2023-03-15T06:53:39;93875.72;;;11.92;32.55
70127;BME280;57491;42.694;23.314;2023-03-15T06:56:06;93886.66;;;12.01;32.47
70127;BME280;57491;42.694;23.314;2023-03-15T06:58:33;93894.38;;;12.44;31.85
70127;BME280;57491;42.694;23.314;2023-03-15T07:01:00;93877.59;;;12.40;31.80
70127;BME280;57491;42.694;23.314;2023-03-15T07:03:28;93879.53;;;12.26;31.65
70127;BME280;57491;42.694;23.314;2023-03-15T07:05:56;93872.22;;;12.35;31.43
70127;BME280;57491;42.694;23.314;2023-03-15T07:08:24;93871.22;;;12.36;33.12
70127;BME280;57491;42.694;23.314;2023-03-15T07:10:51;93884.03;;;12.37;31.42
70127;BME280;57491;42.694;23.314;2023-03-15T07:13:18;93882.28;;;12.79;32.52
70127;BME280;57491;42.694;23.314;2023-03-15T07:15:50;93874.66;;;13.26;32.88
70127;BME280;57491;42.694;23.314;2023-03-15T07:18:17;93868.66;;;13.37;30.80
70127;BME280;57491;42.694;23.314;2023-03-15T07:20:45;93865.72;;;13.45;31.41
70127;BME280;57491;42.694;23.314;2023-03-15T07:23:13;93868.88;;;13.47;30.32
70127;BME280;57491;42.694;23.314;2023-03-15T07:25:40;93878.78;;;13.92;30.23
70127;BME280;57491;42.694;23.314;2023-03-15T07:28:07;93880.09;;;14.29;29.33
70127;BME280;57491;42.694;23.314;2023-03-15T07:30:34;93879.59;;;14.55;29.00
70127;BME280;57491;42.694;23.314;2023-03-15T07:33:01;93866.44;;;14.50;29.21
70127;BME280;57491;42.694;23.314;2023-03-15T07:35:28;93864.13;;;14.94;29.35
70127;BME280;57491;42.694;23.314;2023-03-15T07:37:55;93863.84;;;15.40;29.77
70127;BME280;57491;42.694;23.314;2023-03-15T07:40:24;93867.78;;;15.54;28.47
70127;BME280;57491;42.694;23.314;2023-03-15T07:42:51;93868.09;;;15.58;28.21
70127;BME280;57491;42.694;23.314;2023-03-15T07:45:18;93876.59;;;15.65;28.07
70127;BME280;57491;42.694;23.314;2023-03-15T07:47:45;93870.88;;;15.68;28.68
70127;BME280;57491;42.694;23.314;2023-03-15T07:50:12;93870.53;;;15.98;27.48
70127;BME280;57491;42.694;23.314;2023-03-15T07:52:40;93860.75;;;16.32;26.63
70127;BME280;57491;42.694;23.314;2023-03-15T07:55:07;93856.25;;;16.71;26.17
70127;BME280;57491;42.694;23.314;2023-03-15T07:57:36;93853.06;;;17.17;24.99
70127;BME280;57491;42.694;23.314;2023-03-15T08:00:04;93857.00;;;17.15;25.37
70127;BME280;57491;42.694;23.314;2023-03-15T08:02:31;93864.41;;;16.96;25.65
70127;BME280;57491;42.694;23.314;2023-03-15T08:04:58;93855.47;;;16.92;26.26
70127;BME280;57491;42.694;23.314;2023-03-15T08:07:25;93849.19;;;16.93;26.24
70127;BME280;57491;42.694;23.314;2023-03-15T08:09:52;93852.44;;;17.05;25.33
70127;BME280;57491;42.694;23.314;2023-03-15T08:12:19;93862.03;;;17.21;25.37
70127;BME280;57491;42.694;23.314;2023-03-15T08:14:48;93861.97;;;16.89;25.40
70127;BME280;57491;42.694;23.314;2023-03-15T08:17:16;93845.19;;;16.90;25.76
70127;BME280;57491;42.694;23.314;2023-03-15T08:19:43;93834.78;;;16.74;25.79
70127;BME280;57491;42.694;23.314;2023-03-15T08:22:10;93834.53;;;16.75;26.14
70127;BME280;57491;42.694;23.314;2023-03-15T08:24:37;93826.03;;;16.90;25.56
70127;BME280;57491;42.694;23.314;2023-03-15T08:27:04;93820.91;;;17.32;25.54
70127;BME280;57491;42.694;23.314;2023-03-15T08:29:32;93834.81;;;17.59;24.32
70127;BME280;57491;42.694;23.314;2023-03-15T08:32:00;93834.00;;;17.59;24.66
70127;BME280;57491;42.694;23.314;2023-03-15T08:34:27;93831.19;;;17.70;24.73
70127;BME280;57491;42.694;23.314;2023-03-15T08:36:54;93827.81;;;17.75;24.88
70127;BME280;57491;42.694;23.314;2023-03-15T08:39:21;93826.84;;;17.86;24.20
70127;BME280;57491;42.694;23.314;2023-03-15T08:41:49;93828.88;;;17.74;24.75
70127;BME280;57491;42.694;23.314;2023-03-15T08:44:16;93829.28;;;18.03;25.06
70127;BME280;57491;42.694;23.314;2023-03-15T08:46:43;93812.38;;;18.36;25.10
70127;BME280;57491;42.694;23.314;2023-03-15T08:49:12;93805.41;;;18.71;24.61
70127;BME280;57491;42.694;23.314;2023-03-15T08:51:39;93815.25;;;19.27;24.10
70127;BME280;57491;42.694;23.314;2023-03-15T08:54:06;93815.03;;;19.48;23.73
70127;BME280;57491;42.694;23.314;2023-03-15T08:56:33;93825.78;;;19.32;23.51
70127;BME280;57491;42.694;23.314;2023-03-15T08:59:00;93824.38;;;18.84;23.83
70127;BME280;57491;42.694;23.314;2023-03-15T09:01:27;93832.38;;;18.37;24.01
70127;BME280;57491;42.694;23.314;2023-03-15T09:03:55;93823.13;;;17.82;25.34
70127;BME280;57491;42.694;23.314;2023-03-15T09:06:24;93828.78;;;17.32;25.92
70127;BME280;57491;42.694;23.314;2023-03-15T09:08:51;93822.25;;;17.39;26.20
70127;BME280;57491;42.694;23.314;2023-03-15T09:11:19;93826.75;;;17.44;25.59
70127;BME280;57491;42.694;23.314;2023-03-15T09:13:46;93830.22;;;17.50;26.01
70127;BME280;57491;42.694;23.314;2023-03-15T09:16:14;93829.38;;;17.12;26.01
70127;BME280;57491;42.694;23.314;2023-03-15T09:18:41;93825.16;;;16.79;26.42
70127;BME280;57491;42.694;23.314;2023-03-15T09:21:10;93828.25;;;16.55;27.30
70127;BME280;57491;42.694;23.314;2023-03-15T09:23:39;93826.00;;;16.41;27.79
70127;BME280;57491;42.694;23.314;2023-03-15T09:26:06;93829.41;;;16.42;27.02
70127;BME280;57491;42.694;23.314;2023-03-15T09:28:33;93824.78;;;16.27;27.06
70127;BME280;57491;42.694;23.314;2023-03-15T09:31:03;93833.84;;;15.98;27.59
70127;BME280;57491;42.694;23.314;2023-03-15T09:33:30;93827.72;;;15.92;27.95
70127;BME280;57491;42.694;23.314;2023-03-15T09:35:58;93825.41;;;15.96;28.15
70127;BME280;57491;42.694;23.314;2023-03-15T09:38:26;93819.69;;;15.99;27.89
70127;BME280;57491;42.694;23.314;2023-03-15T09:40:57;93816.09;;;16.27;27.52
70127;BME280;57491;42.694;23.314;2023-03-15T09:43:37;93802.91;;;16.87;27.12
70127;BME280;57491;42.694;23.314;2023-03-15T09:46:19;93799.81;;;16.95;26.11
70127;BME280;57491;42.694;23.314;2023-03-15T09:48:53;93806.59;;;16.91;26.30
70127;BME280;57491;42.694;23.314;2023-03-15T09:51:29;93804.88;;;16.53;26.97
70127;BME280;57491;42.694;23.314;2023-03-15T09:54:00;93792.06;;;15.91;28.20
70127;BME280;57491;42.694;23.314;2023-03-15T09:56:33;93782.94;;;15.94;28.02
70127;BME280;57491;42.694;23.314;2023-03-15T09:59:02;93789.56;;;15.80;28.19
70127;BME280;57491;42.694;23.314;2023-03-15T10:01:30;93791.25;;;15.69;28.48
70127;BME280;57491;42.694;23.314;2023-03-15T10:04:02;93791.94;;;15.81;28.45
70127;BME280;57491;42.694;23.314;2023-03-15T10:06:32;93788.84;;;15.84;28.17
70127;BME280;57491;42.694;23.314;2023-03-15T10:09:02;93803.06;;;15.72;28.48
70127;BME280;57491;42.694;23.314;2023-03-15T10:11:34;93804.19;;;15.76;29.02
70127;BME280;57491;42.694;23.314;2023-03-15T10:14:14;93800.78;;;15.75;29.05
70127;BME280;57491;42.694;23.314;2023-03-15T10:16:45;93795.66;;;15.85;28.25
70127;BME280;57491;42.694;23.314;2023-03-15T10:19:17;93797.16;;;15.98;28.08
70127;BME280;57491;42.694;23.314;2023-03-15T10:21:57;93800.88;;;16.02;28.23
70127;BME280;57491;42.694;23.314;2023-03-15T10:24:33;93795.31;;;16.20;28.24
70127;BME280;57491;42.694;23.314;2023-03-15T10:27:13;93798.34;;;16.12;28.60
70127;BME280;57491;42.694;23.314;2023-03-15T10:29:42;93798.03;;;16.08;27.94
70127;BME280;57491;42.694;23.314;2023-03-15T10:32:15;93792.63;;;15.93;28.10
70127;BME280;57491;42.694;23.314;2023-03-15T10:34:45;93788.88;;;15.51;28.60
70127;BME280;57491;42.694;23.314;2023-03-15T10:37:13;93785.38;;;15.45;29.26
70127;BME280;57491;42.694;23.314;2023-03-15T10:39:41;93785.94;;;15.31;29.05
70127;BME280;57491;42.694;23.314;2023-03-15T10:42:25;93796.25;;;15.21;29.44
70127;BME280;57491;42.694;23.314;2023-03-15T10:44:52;93800.22;;;15.23;29.49
70127;BME280;57491;42.694;23.314;2023-03-15T10:47:20;93794.75;;;15.25;29.25
70127;BME280;57491;42.694;23.314;2023-03-15T10:49:48;93784.91;;;15.15;29.56
70127;BME280;57491;42.694;23.314;2023-03-15T10:52:32;93778.25;;;15.07;29.46
70127;BME280;57491;42.694;23.314;2023-03-15T10:55:03;93787.44;;;15.10;29.56
70127;BME280;57491;42.694;23.314;2023-03-15T10:57:37;93787.03;;;15.01;29.21
70127;BME280;57491;42.694;23.314;2023-03-15T11:00:20;93788.88;;;14.56;29.63
70127;BME280;57491;42.694;23.314;2023-03-15T11:02:50;93794.84;;;14.28;31.04
70127;BME280;57491;42.694;23.314;2023-03-15T11:05:18;93783.78;;;14.09;30.83
70127;BME280;57491;42.694;23.314;2023-03-15T11:07:53;93782.09;;;14.03;31.22
70127;BME280;57491;42.694;23.314;2023-03-15T11:10:21;93786.63;;;14.08;30.59
70127;BME280;57491;42.694;23.314;2023-03-15T11:13:08;93783.91;;;14.03;30.99
70127;BME280;57491;42.694;23.314;2023-03-15T11:15:35;93770.72;;;14.09;31.42
70127;BME280;57491;42.694;23.314;2023-03-15T11:18:02;93766.56;;;14.25;30.68
70127;BME280;57491;42.694;23.314;2023-03-15T11:20:31;93769.81;;;14.32;30.95
70127;BME280;57491;42.694;23.314;2023-03-15T11:23:07;93776.97;;;14.48;31.13
70127;BME280;57491;42.694;23.314;2023-03-15T11:25:39;93770.16;;;14.64;30.68
70127;BME280;57491;42.694;23.314;2023-03-15T11:28:14;93772.84;;;14.81;30.55
70127;BME280;57491;42.694;23.314;2023-03-15T11:30:42;93769.56;;;14.73;30.69
70127;BME280;57491;42.694;23.314;2023-03-15T11:33:10;93776.56;;;14.85;30.41
70127;BME280;57491;42.694;23.314;2023-03-15T11:35:44;93777.41;;;14.73;30.82
70127;BME280;57491;42.694;23.314;2023-03-15T11:38:17;93767.34;;;14.82;30.71
70127;BME280;57491;42.694;23.314;2023-03-15T11:40:53;93754.81;;;14.67;30.75
70127;BME280;57491;42.694;23.314;2023-03-15T11:43:25;93765.75;;;14.64;31.19
70127;BME280;57491;42.694;23.314;2023-03-15T11:45:57;93765.28;;;14.67;31.45
70127;BME280;57491;42.694;23.314;2023-03-15T11:48:27;93760.13;;;14.72;31.24
70127;BME280;57491;42.694;23.314;2023-03-15T11:50:57;93760.88;;;14.85;30.83
70127;BME280;57491;42.694;23.314;2023-03-15T11:53:37;93738.34;;;14.84;32.63
70127;BME280;57491;42.694;23.314;2023-03-15T11:56:21;93752.53;;;14.71;34.82
70127;BME280;57491;42.694;23.314;2023-03-15T11:59:03;93763.88;;;14.48;35.57
70127;BME280;57491;42.694;23.314;2023-03-15T12:01:33;93752.69;;;14.36;36.31
70127;BME280;57491;42.694;23.314;2023-03-15T12:08:00;93759.19;;;14.22;36.47
70127;BME280;57491;42.694;23.314;2023-03-15T12:10:45;93744.44;;;14.16;37.20
70127;BME280;57491;42.694;23.314;2023-03-15T12:13:22;93742.56;;;14.00;36.57
70127;BME280;57491;42.694;23.314;2023-03-15T12:15:52;93748.59;;;14.00;36.42
70127;BME280;57491;42.694;23.314;2023-03-15T12:18:27;93740.16;;;13.98;36.12
70127;BME280;57491;42.694;23.314;2023-03-15T12:21:10;93733.88;;;13.71;37.51
70127;BME280;57491;42.694;23.314;2023-03-15T12:23:42;93736.06;;;13.62;37.88
70127;BME280;57491;42.694;23.314;2023-03-15T12:26:21;93733.78;;;13.54;38.27
70127;BME280;57491;42.694;23.314;2023-03-15T12:28:51;93736.28;;;13.61;38.25
70127;BME280;57491;42.694;23.314;2023-03-15T12:31:21;93727.78;;;13.54;38.39
70127;BME280;57491;42.694;23.314;2023-03-15T12:33:50;93740.16;;;13.58;38.50
70127;BME280;57491;42.694;23.314;2023-03-15T12:36:31;93725.38;;;13.52;38.55
70127;BME280;57491;42.694;23.314;2023-03-15T12:39:18;93725.38;;;13.52;39.31
70127;BME280;57491;42.694;23.314;2023-03-15T12:41:47;93734.03;;;13.41;38.87
70127;BME280;57491;42.694;23.314;2023-03-15T12:44:38;93728.59;;;13.31;39.91
70127;BME280;57491;42.694;23.314;2023-03-15T12:47:08;93730.50;;;13.24;40.75
70127;BME280;57491;42.694;23.314;2023-03-15T12:49:40;93730.28;;;13.25;40.57
70127;BME280;57491;42.694;23.314;2023-03-15T12:52:36;93730.41;;;13.30;40.35
70127;BME280;57491;42.694;23.314;2023-03-15T12:55:12;93722.91;;;13.34;39.84
70127;BME280;57491;42.694;23.314;2023-03-15T12:57:46;93725.41;;;13.29;38.92
70127;BME280;57491;42.694;23.314;2023-03-15T13:00:16;93723.03;;;13.39;39.15
70127;BME280;57491;42.694;23.314;2023-03-15T13:02:48;93713.28;;;13.46;37.97
70127;BME280;57491;42.694;23.314;2023-03-15T13:05:22;93723.22;;;13.61;37.45
70127;BME280;57491;42.694;23.314;2023-03-15T13:07:55;93715.38;;;13.61;37.94
70127;BME280;57491;42.694;23.314;2023-03-15T13:10:34;93722.63;;;13.70;36.89